createdAt,value
2018-08-18T00:00:25.692Z,8.53
2018-08-18T00:01:30.060Z,5.12
2018-08-18T00:02:37.248Z,10.10
2018-08-18T00:03:41.429Z,12.13
2018-08-18T00:04:45.630Z,5.30
2018-08-18T00:05:49.823Z,9.20
2018-08-18T00:06:54.002Z,6.05
2018-08-18T00:07:58.179Z,5.35
2018-08-18T00:09:02.350Z,11.48
2018-08-18T00:10:08.452Z,8.78
2018-08-18T00:11:12.657Z,7.47
2018-08-18T00:12:29.411Z,5.67
2018-08-18T00:13:47.807Z,4.90
2018-08-18T00:14:52.001Z,6.33
2018-08-18T00:15:56.142Z,6.28
2018-08-18T00:17:00.411Z,5.40
2018-08-18T00:18:04.579Z,4.55
2018-08-18T00:19:09.046Z,8.83
2018-08-18T00:20:24.371Z,7.78
2018-08-18T00:21:31.823Z,5.42
2018-08-18T00:22:36.007Z,5.55
2018-08-18T00:23:40.231Z,5.08
2018-08-18T00:24:49.612Z,8.03
2018-08-18T00:25:53.817Z,9.78
2018-08-18T00:26:58.135Z,4.95
2018-08-18T00:28:13.489Z,9.50
2018-08-18T00:29:17.659Z,9.05
2018-08-18T00:30:27.532Z,3.80
2018-08-18T00:31:31.880Z,4.33
2018-08-18T00:32:36.045Z,9.65
2018-08-18T00:33:40.249Z,7.67
2018-08-18T00:34:51.425Z,9.40
2018-08-18T00:35:55.646Z,11.10
2018-08-18T00:36:59.783Z,5.25
2018-08-18T00:38:03.963Z,8.63
2018-08-18T00:39:10.327Z,4.05
2018-08-18T00:40:14.509Z,9.30
2018-08-18T00:41:18.732Z,6.28
2018-08-18T00:42:23.724Z,5.37
2018-08-18T00:43:28.344Z,5.97
2018-08-18T00:44:32.586Z,5.65
2018-08-18T00:45:36.899Z,7.97
2018-08-18T00:46:41.046Z,5.75
2018-08-18T00:47:45.210Z,11.03
2018-08-18T00:48:49.360Z,4.40
2018-08-18T00:49:53.526Z,8.18
2018-08-18T00:50:57.691Z,6.42
2018-08-18T00:52:01.815Z,6.45
2018-08-18T00:53:07.800Z,12.90
2018-08-18T00:54:12.011Z,12.18
2018-08-18T00:55:16.207Z,6.62
2018-08-18T00:56:20.390Z,7.60
2018-08-18T00:57:29.204Z,8.08
2018-08-18T00:58:33.403Z,5.95
2018-08-18T00:59:41.330Z,6.05
2018-08-18T01:00:50.091Z,9.55
2018-08-18T01:01:54.288Z,7.05
2018-08-18T01:02:58.939Z,10.40
2018-08-18T01:04:07.824Z,19.17
2018-08-18T01:05:12.033Z,6.58
2018-08-18T01:06:19.376Z,8.50
2018-08-18T01:07:23.999Z,7.53
2018-08-18T01:08:28.207Z,10.20
2018-08-18T01:09:41.390Z,7.40
2018-08-18T01:10:45.546Z,7.03
2018-08-18T01:11:49.952Z,7.30
2018-08-18T01:12:53.959Z,6.72
2018-08-18T01:14:01.757Z,6.33
2018-08-18T01:15:08.329Z,6.37
2018-08-18T01:16:12.492Z,8.78
2018-08-18T01:17:16.788Z,6.40
2018-08-18T01:18:21.001Z,7.37
2018-08-18T01:19:25.165Z,9.43
2018-08-18T01:20:29.390Z,6.90
2018-08-18T01:21:34.039Z,6.12
2018-08-18T01:22:38.424Z,10.03
2018-08-18T01:23:42.607Z,5.67
2018-08-18T01:24:46.811Z,11.57
2018-08-18T01:25:50.988Z,6.17
2018-08-18T01:26:55.179Z,9.83
2018-08-18T01:28:00.274Z,5.37
2018-08-18T01:29:15.924Z,10.28
2018-08-18T01:30:20.153Z,5.70
2018-08-18T01:31:25.247Z,10.28
2018-08-18T01:32:31.038Z,7.45
2018-08-18T01:33:36.672Z,9.55
2018-08-18T01:34:40.863Z,6.65
2018-08-18T01:35:45.203Z,10.25
2018-08-18T01:36:49.510Z,6.70
2018-08-18T01:37:53.683Z,6.35
2018-08-18T01:38:57.889Z,7.67
2018-08-18T01:40:02.068Z,10.55
2018-08-18T01:41:21.411Z,6.53
2018-08-18T01:42:25.814Z,8.43
2018-08-18T01:43:29.975Z,7.30
2018-08-18T01:44:34.179Z,6.17
2018-08-18T01:45:38.379Z,11.53
2018-08-18T01:46:43.476Z,10.85
2018-08-18T01:47:47.650Z,9.20
2018-08-18T01:48:51.999Z,7.30
2018-08-18T01:49:56.435Z,6.60
2018-08-18T01:51:10.603Z,8.68
2018-08-18T01:52:20.791Z,8.88
2018-08-18T01:53:25.100Z,11.33
2018-08-18T01:54:29.426Z,11.65
2018-08-18T01:55:33.619Z,10.78
2018-08-18T01:56:37.939Z,19.23
2018-08-18T01:57:42.066Z,13.43
2018-08-18T01:58:46.291Z,11.57
2018-08-18T01:59:50.764Z,11.05
2018-08-18T02:00:55.044Z,10.75
2018-08-18T02:01:59.198Z,8.10
2018-08-18T02:03:03.379Z,13.25
2018-08-18T02:04:07.751Z,12.35
2018-08-18T02:05:17.151Z,10.55
2018-08-18T02:06:21.522Z,12.37
2018-08-18T02:07:29.901Z,11.90
2018-08-18T02:08:48.110Z,12.63
2018-08-18T02:09:52.537Z,17.40
2018-08-18T02:10:56.952Z,15.53
2018-08-18T02:12:01.439Z,11.48
2018-08-18T02:13:05.643Z,14.43
2018-08-18T02:14:21.062Z,17.07
2018-08-18T02:15:25.198Z,19.23
2018-08-18T02:16:29.404Z,16.60
2018-08-18T02:17:35.829Z,16.77
2018-08-18T02:18:40.595Z,14.95
2018-08-18T02:19:44.907Z,17.32
2018-08-18T02:20:49.070Z,16.52
2018-08-18T02:21:53.293Z,15.53
2018-08-18T02:22:57.501Z,13.22
2018-08-18T02:24:03.414Z,16.55
2018-08-18T02:25:07.588Z,20.20
2018-08-18T02:26:11.762Z,18.12
2018-08-18T02:27:15.952Z,18.12
2018-08-18T02:28:29.139Z,11.90
2018-08-18T02:29:33.314Z,12.45
2018-08-18T02:30:37.555Z,15.85
2018-08-18T02:31:41.707Z,12.75
2018-08-18T02:32:45.874Z,18.77
2018-08-18T02:33:50.080Z,16.20
2018-08-18T02:34:54.698Z,13.03
2018-08-18T02:35:58.888Z,10.63
2018-08-18T02:37:03.111Z,13.53
2018-08-18T02:38:07.503Z,21.87
2018-08-18T02:39:11.812Z,18.98
2018-08-18T02:40:17.403Z,16.40
2018-08-18T02:41:21.579Z,11.68
2018-08-18T02:42:25.799Z,12.63
2018-08-18T02:43:29.995Z,14.50
2018-08-18T02:44:34.411Z,13.65
2018-08-18T02:45:38.736Z,11.60
2018-08-18T02:46:42.928Z,12.60
2018-08-18T02:47:47.193Z,12.03
2018-08-18T02:48:51.367Z,11.03
2018-08-18T02:49:56.319Z,12.33
2018-08-18T02:51:00.736Z,12.15
2018-08-18T02:52:08.620Z,11.80
2018-08-18T02:53:30.608Z,18.35
2018-08-18T02:54:38.911Z,10.58
2018-08-18T02:55:43.115Z,13.38
2018-08-18T02:56:47.310Z,16.75
2018-08-18T02:57:51.471Z,16.15
2018-08-18T02:59:01.518Z,14.83
2018-08-18T03:00:08.815Z,11.25
2018-08-18T03:01:13.019Z,11.35
2018-08-18T03:02:17.167Z,11.70
2018-08-18T03:03:21.331Z,15.43
2018-08-18T03:04:25.959Z,10.03
2018-08-18T03:05:30.211Z,17.40
2018-08-18T03:06:34.390Z,17.02
2018-08-18T03:07:43.152Z,9.55
2018-08-18T03:08:47.435Z,9.03
2018-08-18T03:09:51.908Z,15.35
2018-08-18T03:10:56.053Z,10.13
2018-08-18T03:12:00.358Z,14.03
2018-08-18T03:13:04.868Z,11.88
2018-08-18T03:14:09.347Z,12.05
2018-08-18T03:16:20.316Z,14.83
2018-08-18T03:17:24.564Z,12.03
2018-08-18T03:18:55.364Z,11.95
2018-08-18T03:19:59.528Z,11.60
2018-08-18T03:21:03.899Z,14.25
2018-08-18T03:22:08.104Z,11.43
2018-08-18T03:23:12.255Z,12.18
2018-08-18T03:24:20.162Z,8.78
2018-08-18T03:25:36.386Z,8.93
2018-08-18T03:26:41.937Z,9.15
2018-08-18T03:27:46.164Z,11.68
2018-08-18T03:28:51.041Z,13.98
2018-08-18T03:29:55.564Z,9.40
2018-08-18T03:30:59.902Z,13.22
2018-08-18T03:32:04.083Z,9.93
2018-08-18T03:33:11.719Z,13.70
2018-08-18T03:34:16.179Z,11.28
2018-08-18T03:35:20.332Z,11.65
2018-08-18T03:36:28.075Z,17.70
2018-08-18T03:37:32.435Z,10.80
2018-08-18T03:38:36.782Z,17.80
2018-08-18T03:39:41.075Z,14.75
2018-08-18T03:40:45.231Z,11.85
2018-08-18T03:41:49.870Z,11.03
2018-08-18T03:42:54.027Z,12.10
2018-08-18T03:43:58.491Z,14.70
2018-08-18T03:45:03.186Z,9.90
2018-08-18T03:46:07.379Z,13.65
2018-08-18T03:47:11.539Z,13.78
2018-08-18T03:48:15.670Z,9.80
2018-08-18T03:49:20.267Z,9.00
2018-08-18T03:50:24.494Z,16.70
2018-08-18T03:51:34.008Z,14.45
2018-08-18T03:52:38.173Z,10.28
2018-08-18T03:53:42.730Z,8.90
2018-08-18T03:54:46.911Z,13.88
2018-08-18T03:55:51.150Z,13.88
2018-08-18T03:56:55.293Z,10.38
2018-08-18T03:57:59.487Z,13.80
2018-08-18T03:59:03.986Z,10.60
2018-08-18T04:00:08.187Z,10.65
2018-08-18T04:01:12.408Z,12.10
2018-08-18T04:02:17.383Z,14.80
2018-08-18T04:03:21.589Z,8.30
2018-08-18T04:04:27.214Z,10.55
2018-08-18T04:05:31.387Z,15.08
2018-08-18T04:06:36.764Z,12.58
2018-08-18T04:07:46.867Z,12.35
2018-08-18T04:08:51.020Z,13.43
2018-08-18T04:09:55.770Z,11.78
2018-08-18T04:10:59.942Z,11.48
2018-08-18T04:12:06.431Z,9.28
2018-08-18T04:13:10.577Z,11.38
2018-08-18T04:14:15.518Z,13.53
2018-08-18T04:15:20.031Z,11.68
2018-08-18T04:16:24.295Z,11.65
2018-08-18T04:17:30.501Z,10.03
2018-08-18T04:18:34.693Z,11.33
2018-08-18T04:19:38.850Z,9.03
2018-08-18T04:20:43.023Z,12.40
2018-08-18T04:21:47.821Z,12.33
2018-08-18T04:22:52.230Z,13.75
2018-08-18T04:23:56.398Z,7.85
2018-08-18T04:25:00.642Z,8.93
2018-08-18T04:26:04.889Z,10.75
2018-08-18T04:27:09.077Z,10.05
2018-08-18T04:28:13.286Z,12.53
2018-08-18T04:29:18.958Z,16.70
2018-08-18T04:30:23.115Z,13.45
2018-08-18T04:31:33.655Z,15.58
2018-08-18T04:32:49.749Z,9.63
2018-08-18T04:33:53.890Z,8.88
2018-08-18T04:34:58.047Z,13.28
2018-08-18T04:36:02.277Z,15.80
2018-08-18T04:37:06.421Z,19.00
2018-08-18T04:38:10.764Z,15.55
2018-08-18T04:39:15.278Z,13.80
2018-08-18T04:40:20.260Z,8.70
2018-08-18T04:41:24.432Z,10.40
2018-08-18T04:42:28.582Z,12.73
2018-08-18T04:43:32.814Z,11.05
2018-08-18T04:44:37.093Z,18.73
2018-08-18T04:45:41.247Z,13.40
2018-08-18T04:46:45.418Z,15.40
2018-08-18T04:47:49.637Z,12.58
2018-08-18T04:48:53.803Z,14.00
2018-08-18T04:49:58.047Z,12.95
2018-08-18T04:51:02.213Z,14.45
2018-08-18T04:52:06.403Z,13.88
2018-08-18T04:53:10.687Z,15.05
2018-08-18T04:54:15.413Z,16.57
2018-08-18T04:55:19.763Z,19.35
2018-08-18T04:56:23.963Z,18.42
2018-08-18T04:57:28.156Z,17.50
2018-08-18T04:58:32.331Z,21.62
2018-08-18T04:59:36.496Z,15.40
2018-08-18T05:00:40.923Z,25.05
2018-08-18T05:01:45.075Z,26.65
2018-08-18T05:02:56.922Z,17.60
2018-08-18T05:04:04.970Z,21.05
2018-08-18T05:05:09.219Z,22.67
2018-08-18T05:06:13.415Z,15.72
2018-08-18T05:07:17.615Z,14.23
2018-08-18T05:08:21.776Z,15.25
2018-08-18T05:09:25.933Z,23.10
2018-08-18T05:10:30.494Z,19.98
2018-08-18T05:11:34.871Z,24.47
2018-08-18T05:12:39.031Z,17.07
2018-08-18T05:13:43.358Z,23.32
2018-08-18T05:14:47.516Z,27.80
2018-08-18T05:15:51.686Z,21.87
2018-08-18T05:16:55.907Z,23.55
2018-08-18T05:18:00.067Z,22.07
2018-08-18T05:19:04.308Z,24.37
2018-08-18T05:20:15.579Z,34.13
2018-08-18T05:21:21.019Z,38.13
2018-08-18T05:22:25.229Z,35.83
2018-08-18T05:23:29.498Z,27.37
2018-08-18T05:24:33.704Z,27.15
2018-08-18T05:25:40.542Z,31.33
2018-08-18T05:26:44.793Z,45.05
2018-08-18T05:27:48.977Z,39.70
2018-08-18T05:28:53.138Z,44.50
2018-08-18T05:29:57.840Z,44.80
2018-08-18T05:31:02.028Z,31.93
2018-08-18T05:32:06.258Z,28.38
2018-08-18T05:33:10.720Z,24.52
2018-08-18T05:34:14.929Z,26.33
2018-08-18T05:35:22.323Z,26.55
2018-08-18T05:36:26.537Z,24.37
2018-08-18T05:37:30.679Z,17.60
2018-08-18T05:38:34.871Z,26.90
2018-08-18T05:39:39.061Z,23.55
2018-08-18T05:40:43.251Z,17.52
2018-08-18T05:41:47.484Z,21.70
2018-08-18T05:42:51.689Z,20.90
2018-08-18T05:43:55.898Z,24.05
2018-08-18T05:45:05.976Z,21.62
2018-08-18T05:46:10.299Z,25.60
2018-08-18T05:47:14.455Z,20.05
2018-08-18T05:48:18.660Z,20.92
2018-08-18T05:49:24.133Z,15.85
2018-08-18T05:50:29.039Z,15.60
2018-08-18T05:51:37.859Z,19.48
2018-08-18T05:52:42.015Z,14.95
2018-08-18T05:53:46.166Z,17.07
2018-08-18T05:54:50.717Z,19.50
2018-08-18T05:55:55.069Z,20.75
2018-08-18T05:56:59.273Z,20.30
2018-08-18T05:58:03.428Z,18.35
2018-08-18T05:59:07.658Z,15.18
2018-08-18T06:00:18.180Z,12.30
2018-08-18T06:01:38.713Z,21.65
2018-08-18T06:02:47.086Z,22.02
2018-08-18T06:03:57.186Z,15.25
2018-08-18T06:05:01.352Z,20.55
2018-08-18T06:06:05.726Z,16.90
2018-08-18T06:07:09.914Z,18.67
2018-08-18T06:08:14.115Z,28.87
2018-08-18T06:09:19.672Z,23.02
2018-08-18T06:10:23.922Z,13.28
2018-08-18T06:11:28.181Z,20.72
2018-08-18T06:12:32.364Z,10.58
2018-08-18T06:13:36.599Z,24.32
2018-08-18T06:14:46.111Z,14.25
2018-08-18T06:16:12.163Z,12.68
2018-08-18T06:17:21.727Z,13.83
2018-08-18T06:18:26.026Z,12.60
2018-08-18T06:19:30.231Z,26.20
2018-08-18T06:20:34.440Z,25.57
2018-08-18T06:21:38.757Z,21.85
2018-08-18T06:22:43.144Z,14.98
2018-08-18T06:23:47.670Z,18.05
2018-08-18T06:24:52.408Z,15.40
2018-08-18T06:25:56.618Z,17.75
2018-08-18T06:27:00.799Z,15.25
2018-08-18T06:28:05.050Z,18.27
2018-08-18T06:29:09.260Z,20.08
2018-08-18T06:30:13.564Z,31.75
2018-08-18T06:31:17.872Z,17.75
2018-08-18T06:32:22.058Z,17.82
2018-08-18T06:33:26.304Z,19.27
2018-08-18T06:34:32.222Z,20.32
2018-08-18T06:35:36.407Z,13.88
2018-08-18T06:36:40.567Z,14.23
2018-08-18T06:37:48.892Z,21.82
2018-08-18T06:38:52.090Z,13.80
2018-08-18T06:39:58.022Z,22.35
2018-08-18T06:41:03.112Z,14.98
2018-08-18T06:42:17.269Z,18.80
2018-08-18T06:43:21.455Z,26.07
2018-08-18T06:44:27.477Z,17.55
2018-08-18T06:45:31.687Z,16.32
2018-08-18T06:46:35.844Z,22.55
2018-08-18T06:47:40.268Z,19.25
2018-08-18T06:48:44.432Z,15.48
2018-08-18T06:49:48.630Z,17.10
2018-08-18T06:50:52.835Z,20.20
2018-08-18T06:51:57.295Z,18.23
2018-08-18T06:53:01.468Z,18.75
2018-08-18T06:54:05.627Z,16.15
2018-08-18T06:55:15.484Z,19.82
2018-08-18T06:56:19.432Z,22.40
2018-08-18T06:57:35.046Z,13.00
2018-08-18T06:58:39.210Z,20.27
2018-08-18T06:59:43.375Z,21.45
2018-08-18T07:00:47.596Z,16.27
2018-08-18T07:01:51.790Z,18.73
2018-08-18T07:02:55.999Z,15.45
2018-08-18T07:04:00.173Z,18.73
2018-08-18T07:05:04.867Z,20.27
2018-08-18T07:06:11.033Z,28.70
2018-08-18T07:07:15.229Z,18.48
2018-08-18T07:08:19.409Z,24.23
2018-08-18T07:09:23.586Z,15.83
2018-08-18T07:10:31.958Z,15.50
2018-08-18T07:11:36.368Z,17.23
2018-08-18T07:12:40.537Z,18.02
2018-08-18T07:13:45.496Z,17.48
2018-08-18T07:14:49.906Z,20.20
2018-08-18T07:15:54.086Z,15.60
2018-08-18T07:16:58.319Z,19.50
2018-08-18T07:18:02.554Z,16.80
2018-08-18T07:19:06.835Z,16.82
2018-08-18T07:20:11.056Z,16.67
2018-08-18T07:21:15.238Z,16.97
2018-08-18T07:22:23.740Z,19.55
2018-08-18T07:23:27.954Z,17.35
2018-08-18T07:24:32.111Z,21.12
2018-08-18T07:25:50.592Z,16.60
2018-08-18T07:26:54.947Z,15.35
2018-08-18T07:28:04.450Z,12.75
2018-08-18T07:29:09.067Z,19.32
2018-08-18T07:30:13.637Z,24.00
2018-08-18T07:31:17.959Z,17.30
2018-08-18T07:32:22.246Z,13.90
2018-08-18T07:33:26.614Z,19.05
2018-08-18T07:34:30.962Z,17.65
2018-08-18T07:35:35.156Z,18.85
2018-08-18T07:36:39.395Z,20.90
2018-08-18T07:37:43.743Z,21.57
2018-08-18T07:38:47.963Z,20.27
2018-08-18T07:39:52.140Z,15.18
2018-08-18T07:40:56.504Z,17.52
2018-08-18T07:42:00.683Z,19.92
2018-08-18T07:43:07.165Z,19.45
2018-08-18T07:44:11.605Z,13.18
2018-08-18T07:45:15.776Z,22.93
2018-08-18T07:46:19.990Z,21.55
2018-08-18T07:47:29.239Z,20.17
2018-08-18T07:48:33.453Z,20.95
2018-08-18T07:49:37.707Z,28.85
2018-08-18T07:50:42.047Z,18.85
2018-08-18T07:51:46.226Z,15.88
2018-08-18T07:52:50.422Z,20.65
2018-08-18T07:53:54.603Z,24.40
2018-08-18T07:54:58.820Z,21.02
2018-08-18T07:56:03.427Z,23.70
2018-08-18T07:57:07.591Z,19.07
2018-08-18T07:58:13.214Z,30.00
2018-08-18T07:59:17.382Z,26.02
2018-08-18T08:00:21.952Z,14.70
2018-08-18T08:01:26.320Z,20.40
2018-08-18T08:02:30.880Z,17.52
2018-08-18T08:03:35.083Z,13.35
2018-08-18T08:04:39.443Z,15.85
2018-08-18T08:05:44.068Z,16.27
2018-08-18T08:06:48.170Z,16.32
2018-08-18T08:07:52.376Z,21.52
2018-08-18T08:08:56.800Z,17.55
2018-08-18T08:10:00.974Z,19.17
2018-08-18T08:11:14.552Z,22.95
2018-08-18T08:12:18.744Z,15.50
2018-08-18T08:13:22.930Z,21.95
2018-08-18T08:14:27.151Z,15.83
2018-08-18T08:15:31.473Z,14.07
2018-08-18T08:16:35.655Z,14.80
2018-08-18T08:17:39.860Z,15.68
2018-08-18T08:18:44.310Z,16.62
2018-08-18T08:19:48.592Z,16.77
2018-08-18T08:20:52.767Z,15.85
2018-08-18T08:21:57.117Z,11.63
2018-08-18T08:23:01.423Z,15.83
2018-08-18T08:24:05.616Z,17.48
2018-08-18T08:25:10.539Z,12.25
2018-08-18T08:26:14.901Z,21.23
2018-08-18T08:27:19.266Z,15.93
2018-08-18T08:28:23.688Z,15.53
2018-08-18T08:29:32.051Z,13.48
2018-08-18T08:30:36.265Z,21.87
2018-08-18T08:31:40.575Z,9.23
2018-08-18T08:32:45.238Z,11.95
2018-08-18T08:33:49.514Z,10.25
2018-08-18T08:34:53.663Z,10.88
2018-08-18T08:35:58.028Z,18.23
2018-08-18T08:37:02.715Z,22.07
2018-08-18T08:38:07.153Z,13.38
2018-08-18T08:39:11.358Z,17.82
2018-08-18T08:40:17.051Z,11.57
2018-08-18T08:41:24.010Z,9.28
2018-08-18T08:42:28.889Z,11.40
2018-08-18T08:43:35.691Z,12.47
2018-08-18T08:44:40.642Z,10.60
2018-08-18T08:45:44.835Z,8.10
2018-08-18T08:47:00.219Z,10.00
2018-08-18T08:48:04.430Z,11.03
2018-08-18T08:49:08.715Z,10.75
2018-08-18T08:50:15.495Z,9.68
2018-08-18T08:51:19.696Z,10.55
2018-08-18T08:52:23.907Z,5.28
2018-08-18T08:53:28.148Z,10.75
2018-08-18T08:54:33.768Z,9.55
2018-08-18T08:55:38.092Z,10.70
2018-08-18T08:56:42.642Z,8.58
2018-08-18T08:57:46.856Z,8.28
2018-08-18T08:58:52.346Z,10.05
2018-08-18T08:59:56.563Z,6.65
2018-08-18T09:01:01.267Z,10.75
2018-08-18T09:02:06.435Z,10.55
2018-08-18T09:03:10.811Z,7.33
2018-08-18T09:04:15.675Z,11.53
2018-08-18T09:05:20.238Z,12.95
2018-08-18T09:06:24.407Z,11.97
2018-08-18T09:07:29.077Z,9.80
2018-08-18T09:08:33.262Z,12.23
2018-08-18T09:09:37.775Z,9.43
2018-08-18T09:10:42.062Z,7.15
2018-08-18T09:11:46.257Z,8.40
2018-08-18T09:12:50.493Z,6.45
2018-08-18T09:14:07.459Z,9.58
2018-08-18T09:15:13.096Z,7.95
2018-08-18T09:16:17.326Z,8.20
2018-08-18T09:17:21.528Z,11.95
2018-08-18T09:18:25.756Z,8.28
2018-08-18T09:19:29.970Z,10.08
2018-08-18T09:20:38.365Z,9.25
2018-08-18T09:21:49.778Z,8.65
2018-08-18T09:22:57.642Z,9.65
2018-08-18T09:24:01.836Z,11.83
2018-08-18T09:25:15.309Z,8.70
2018-08-18T09:26:19.487Z,7.03
2018-08-18T09:27:23.675Z,8.05
2018-08-18T09:28:27.870Z,8.48
2018-08-18T09:29:36.283Z,9.60
2018-08-18T09:30:41.735Z,10.53
2018-08-18T09:31:46.386Z,7.50
2018-08-18T09:32:50.603Z,11.83
2018-08-18T09:33:54.775Z,13.03
2018-08-18T09:34:59.008Z,9.60
2018-08-18T09:36:04.896Z,7.25
2018-08-18T09:37:09.190Z,11.48
2018-08-18T09:38:13.437Z,9.20
2018-08-18T09:39:25.058Z,8.88
2018-08-18T09:40:31.124Z,12.18
2018-08-18T09:41:35.498Z,8.00
2018-08-18T09:42:40.046Z,8.25
2018-08-18T09:43:44.230Z,9.10
2018-08-18T09:44:52.052Z,12.30
2018-08-18T09:45:57.361Z,11.40
2018-08-18T09:47:01.558Z,11.12
2018-08-18T09:48:06.449Z,7.37
2018-08-18T09:49:10.664Z,7.05
2018-08-18T09:50:14.836Z,5.65
2018-08-18T09:51:19.224Z,10.70
2018-08-18T09:52:23.380Z,8.20
2018-08-18T09:53:27.630Z,13.88
2018-08-18T09:54:31.817Z,8.28
2018-08-18T09:55:36.036Z,12.10
2018-08-18T09:56:40.253Z,8.53
2018-08-18T09:57:44.898Z,8.03
2018-08-18T09:58:49.160Z,11.83
2018-08-18T09:59:53.337Z,8.03
2018-08-18T10:00:57.526Z,21.45
2018-08-18T10:02:01.779Z,9.33
2018-08-18T10:03:06.192Z,12.78
2018-08-18T10:04:10.702Z,8.25
2018-08-18T10:05:14.874Z,7.58
2018-08-18T10:06:19.069Z,16.87
2018-08-18T10:07:23.316Z,7.95
2018-08-18T10:08:27.483Z,14.65
2018-08-18T10:09:31.834Z,12.03
2018-08-18T10:10:36.235Z,14.60
2018-08-18T10:11:40.474Z,10.07
2018-08-18T10:12:44.754Z,9.08
2018-08-18T10:13:49.183Z,10.53
2018-08-18T10:14:53.572Z,9.33
2018-08-18T10:15:57.810Z,14.63
2018-08-18T10:17:02.087Z,10.03
2018-08-18T10:18:06.442Z,9.95
2018-08-18T10:19:10.651Z,14.07
2018-08-18T10:20:14.824Z,10.85
2018-08-18T10:21:19.418Z,9.03
2018-08-18T10:22:23.562Z,10.13
2018-08-18T10:23:27.755Z,13.50
2018-08-18T10:24:32.136Z,19.98
2018-08-18T10:25:36.491Z,9.55
2018-08-18T10:26:40.955Z,16.65
2018-08-18T10:27:45.262Z,13.05
2018-08-18T10:28:54.898Z,17.17
2018-08-18T10:29:59.198Z,9.80
2018-08-18T10:31:03.446Z,15.23
2018-08-18T10:32:07.679Z,10.58
2018-08-18T10:33:11.875Z,8.58
2018-08-18T10:34:16.708Z,11.95
2018-08-18T10:35:35.332Z,12.25
2018-08-18T10:36:39.574Z,14.90
2018-08-18T10:37:43.810Z,15.32
2018-08-18T10:38:48.414Z,16.23
2018-08-18T10:39:56.813Z,14.07
2018-08-18T10:41:03.105Z,11.67
2018-08-18T10:42:11.903Z,10.63
2018-08-18T10:43:16.392Z,19.33
2018-08-18T10:44:21.178Z,13.95
2018-08-18T10:45:25.639Z,14.23
2018-08-18T10:46:30.031Z,18.85
2018-08-18T10:47:34.383Z,15.97
2018-08-18T10:48:38.748Z,11.40
2018-08-18T10:49:54.115Z,13.50
2018-08-18T10:51:24.374Z,9.55
2018-08-18T10:52:40.310Z,10.68
2018-08-18T10:53:44.540Z,8.53
2018-08-18T10:54:48.721Z,11.80
2018-08-18T10:55:52.886Z,11.73
2018-08-18T10:56:57.232Z,13.37
2018-08-18T10:58:08.608Z,13.53
2018-08-18T10:59:14.544Z,10.05
2018-08-18T11:00:22.051Z,12.17
2018-08-18T11:01:26.211Z,9.90
2018-08-18T11:02:32.725Z,10.32
2018-08-18T11:03:36.880Z,8.97
2018-08-18T11:04:41.198Z,11.07
2018-08-18T11:05:45.548Z,12.13
2018-08-18T11:06:49.726Z,14.50
2018-08-18T11:08:00.063Z,10.20
2018-08-18T11:09:05.566Z,12.93
2018-08-18T11:10:10.307Z,10.13
2018-08-18T11:11:18.483Z,10.50
2018-08-18T11:12:22.642Z,10.80
2018-08-18T11:13:26.836Z,7.10
2018-08-18T11:14:30.967Z,11.93
2018-08-18T11:15:35.274Z,12.27
2018-08-18T11:16:39.772Z,7.70
2018-08-18T11:17:44.051Z,7.63
2018-08-18T11:18:48.248Z,7.97
2018-08-18T11:19:52.928Z,7.55
2018-08-18T11:20:57.123Z,10.30
2018-08-18T11:22:12.487Z,11.20
2018-08-18T11:23:16.661Z,10.60
2018-08-18T11:24:20.923Z,12.70
2018-08-18T11:25:27.596Z,10.90
2018-08-18T11:26:35.829Z,9.20
2018-08-18T11:27:40.066Z,13.47
2018-08-18T11:28:44.425Z,9.93
2018-08-18T11:29:48.639Z,14.83
2018-08-18T11:30:53.985Z,7.80
2018-08-18T11:31:58.291Z,11.10
2018-08-18T11:33:02.982Z,8.30
2018-08-18T11:34:07.242Z,14.70
2018-08-18T11:35:11.487Z,13.70
2018-08-18T11:36:15.827Z,10.27
2018-08-18T11:37:20.007Z,12.37
2018-08-18T11:38:24.191Z,9.10
2018-08-18T11:39:29.548Z,12.47
2018-08-18T11:40:33.836Z,11.75
2018-08-18T11:41:38.103Z,11.40
2018-08-18T11:42:42.249Z,9.27
2018-08-18T11:43:48.194Z,13.87
2018-08-18T11:44:52.384Z,10.63
2018-08-18T11:45:56.572Z,10.57
2018-08-18T11:47:00.871Z,21.67
2018-08-18T11:48:09.498Z,13.50
2018-08-18T11:49:13.705Z,12.70
2018-08-18T11:50:17.875Z,12.73
2018-08-18T11:51:23.507Z,10.33
2018-08-18T11:52:27.739Z,9.13
2018-08-18T11:53:32.004Z,7.60
2018-08-18T11:54:36.222Z,9.80
2018-08-18T11:55:40.858Z,8.53
2018-08-18T11:56:50.440Z,7.20
2018-08-18T11:57:56.491Z,7.93
2018-08-18T11:59:10.368Z,11.17
2018-08-18T12:00:14.680Z,11.00
2018-08-18T12:01:23.018Z,7.63
2018-08-18T12:02:27.222Z,9.70
2018-08-18T12:03:32.801Z,8.87
2018-08-18T12:04:37.020Z,9.30
2018-08-18T12:05:50.161Z,15.60
2018-08-18T12:06:57.890Z,4.83
2018-08-18T12:08:02.115Z,10.23
2018-08-18T12:09:06.338Z,9.00
2018-08-18T12:10:10.979Z,6.03
2018-08-18T12:11:15.209Z,8.77
2018-08-18T12:12:19.404Z,8.17
2018-08-18T12:13:29.716Z,6.57
2018-08-18T12:14:33.888Z,9.60
2018-08-18T12:15:54.694Z,10.67
2018-08-18T12:16:58.912Z,7.60
2018-08-18T12:18:03.321Z,6.20
2018-08-18T12:19:07.616Z,7.77
2018-08-18T12:20:11.765Z,9.50
2018-08-18T12:21:16.327Z,9.23
2018-08-18T12:22:20.723Z,9.43
2018-08-18T12:23:25.082Z,10.27
2018-08-18T12:24:29.284Z,5.70
2018-08-18T12:25:33.510Z,9.13
2018-08-18T12:26:37.724Z,9.40
2018-08-18T12:27:41.939Z,6.53
2018-08-18T12:28:48.230Z,4.53
2018-08-18T12:29:52.534Z,4.40
2018-08-18T12:30:56.639Z,5.93
2018-08-18T12:32:01.106Z,9.30
2018-08-18T12:33:10.579Z,7.40
2018-08-18T12:34:14.785Z,15.43
2018-08-18T12:35:19.019Z,9.00
2018-08-18T12:36:23.313Z,8.90
2018-08-18T12:37:28.479Z,6.95
2018-08-18T12:38:33.103Z,6.00
2018-08-18T12:39:37.295Z,12.87
2018-08-18T12:40:41.497Z,7.27
2018-08-18T12:41:45.885Z,7.87
2018-08-18T12:42:50.252Z,7.47
2018-08-18T12:43:55.905Z,4.97
2018-08-18T12:45:00.166Z,8.93
2018-08-18T12:46:05.725Z,11.10
2018-08-18T12:47:09.915Z,8.97
2018-08-18T12:48:14.263Z,7.53
2018-08-18T12:49:18.623Z,6.00
2018-08-18T12:50:23.083Z,5.70
2018-08-18T12:51:27.291Z,7.40
2018-08-18T12:52:40.506Z,8.23
2018-08-18T12:54:02.090Z,9.60
2018-08-18T12:55:06.726Z,8.67
2018-08-18T12:56:12.503Z,7.50
2018-08-18T12:57:26.632Z,4.37
2018-08-18T12:58:32.129Z,9.70
2018-08-18T12:59:37.511Z,6.80
2018-08-18T13:00:41.786Z,8.80
2018-08-18T13:01:47.250Z,6.13
2018-08-18T13:02:53.335Z,5.90
2018-08-18T13:03:57.947Z,9.97
2018-08-18T13:05:02.161Z,6.30
2018-08-18T13:06:07.064Z,12.43
2018-08-18T13:07:11.248Z,6.20
2018-08-18T13:08:15.475Z,5.80
2018-08-18T13:09:21.312Z,14.17
2018-08-18T13:10:27.046Z,10.57
2018-08-18T13:11:31.272Z,9.53
2018-08-18T13:12:35.395Z,15.67
2018-08-18T13:13:39.788Z,8.20
2018-08-18T13:14:43.991Z,5.50
2018-08-18T13:15:49.011Z,8.80
2018-08-18T13:16:53.431Z,17.27
2018-08-18T13:17:57.634Z,5.17
2018-08-18T13:19:01.979Z,9.23
2018-08-18T13:20:06.293Z,6.43
2018-08-18T13:21:10.798Z,10.67
2018-08-18T13:22:14.961Z,5.40
2018-08-18T13:23:21.370Z,10.93
2018-08-18T13:24:25.607Z,5.30
2018-08-18T13:25:30.283Z,7.93
2018-08-18T13:26:34.593Z,6.90
2018-08-18T13:27:45.025Z,6.73
2018-08-18T13:28:53.815Z,5.67
2018-08-18T13:29:57.969Z,12.60
2018-08-18T13:31:02.184Z,8.33
2018-08-18T13:32:06.644Z,6.30
2018-08-18T13:33:10.844Z,6.20
2018-08-18T13:34:16.415Z,3.87
2018-08-18T13:35:20.563Z,7.00
2018-08-18T13:36:24.735Z,4.17
2018-08-18T13:37:29.107Z,6.93
2018-08-18T13:38:33.374Z,6.20
2018-08-18T13:39:37.851Z,7.27
2018-08-18T13:40:42.052Z,3.93
2018-08-18T13:41:47.105Z,10.97
2018-08-18T13:42:51.249Z,7.70
2018-08-18T13:43:55.922Z,13.93
2018-08-18T13:45:00.126Z,7.13
2018-08-18T13:46:04.516Z,3.93
2018-08-18T13:47:08.796Z,6.00
2018-08-18T13:48:13.436Z,4.30
2018-08-18T13:49:21.311Z,5.10
2018-08-18T13:50:25.510Z,3.70
2018-08-18T13:51:29.739Z,6.63
2018-08-18T13:52:39.182Z,5.93
2018-08-18T13:53:47.699Z,5.03
2018-08-18T13:54:52.918Z,3.97
2018-08-18T13:55:57.083Z,9.47
2018-08-18T13:57:01.267Z,7.63
2018-08-18T13:58:05.788Z,8.50
2018-08-18T13:59:10.059Z,7.10
2018-08-18T14:00:17.475Z,6.43
2018-08-18T14:01:41.846Z,4.30
2018-08-18T14:02:46.670Z,6.30
2018-08-18T14:03:50.884Z,10.20
2018-08-18T14:04:55.325Z,6.23
2018-08-18T14:05:59.484Z,5.10
2018-08-18T14:07:03.736Z,3.50
2018-08-18T14:08:08.080Z,10.40
2018-08-18T14:09:12.174Z,4.07
2018-08-18T14:10:16.390Z,9.20
2018-08-18T14:11:20.799Z,9.00
2018-08-18T14:12:25.048Z,6.33
2018-08-18T14:13:29.580Z,11.50